createdAt,value
2019-01-21T00:00:16.026Z,86.06
2019-01-21T00:01:25.448Z,86.82
2019-01-21T00:02:34.871Z,85.68
2019-01-21T00:03:44.556Z,86.15
2019-01-21T00:04:54.219Z,85.96
2019-01-21T00:06:03.889Z,86.25
2019-01-21T00:07:13.064Z,87
2019-01-21T00:08:22.989Z,86.82
2019-01-21T00:09:32.659Z,86.25
2019-01-21T00:10:42.579Z,87.29
2019-01-21T00:11:51.993Z,87.57
2019-01-21T00:13:01.416Z,87.48
2019-01-21T00:14:10.833Z,88.23
2019-01-21T00:15:20.254Z,87.85
2019-01-21T00:16:29.917Z,88.04
2019-01-21T00:17:39.832Z,87.57
2019-01-21T00:18:49.510Z,87.57
2019-01-21T00:19:58.682Z,87.57
2019-01-21T00:21:08.359Z,86.91
2019-01-21T00:22:18.276Z,86.82
2019-01-21T00:23:27.702Z,86.82
2019-01-21T00:24:37.371Z,86.82
2019-01-21T00:25:47.040Z,86.72
2019-01-21T00:26:56.957Z,86.82
2019-01-21T00:28:06.631Z,86.72
2019-01-21T00:29:16.564Z,86.72
2019-01-21T00:30:26.234Z,87
2019-01-21T00:31:35.896Z,87.19
2019-01-21T00:32:45.324Z,87
2019-01-21T00:33:54.998Z,87.29
2019-01-21T00:35:04.922Z,87.19
2019-01-21T00:36:14.343Z,86.91
2019-01-21T00:37:24.264Z,85.96
2019-01-21T00:38:33.445Z,85.87
2019-01-21T00:39:42.879Z,85.68
2019-01-21T00:40:52.555Z,84.92
2019-01-21T00:42:02.467Z,84.45
2019-01-21T00:43:12.389Z,84.45
2019-01-21T00:44:22.059Z,84.45
2019-01-21T00:45:31.471Z,85.21
2019-01-21T00:46:40.890Z,85.87
2019-01-21T00:47:50.557Z,85.59
2019-01-21T00:48:59.979Z,84.55
2019-01-21T00:50:09.396Z,85.02
2019-01-21T00:51:19.575Z,84.36
2019-01-21T00:52:29.314Z,84.17
2019-01-21T00:53:38.981Z,84.45
2019-01-21T00:54:48.396Z,84.64
2019-01-21T00:55:58.243Z,84.27
2019-01-21T00:57:08.164Z,84.36
2019-01-21T00:58:17.585Z,83.7
2019-01-21T00:59:27.016Z,83.42
2019-01-21T01:00:36.938Z,83.23
2019-01-21T01:01:46.109Z,83.42
2019-01-21T01:02:56.043Z,83.42
2019-01-21T01:04:05.721Z,82.57
2019-01-21T01:05:15.143Z,83.04
2019-01-21T01:06:24.811Z,83.51
2019-01-21T01:07:34.726Z,83.89
2019-01-21T01:08:44.647Z,84.55
2019-01-21T01:09:54.558Z,84.45
2019-01-21T01:11:04.482Z,85.59
2019-01-21T01:12:14.198Z,84.83
2019-01-21T01:13:23.377Z,84.36
2019-01-21T01:14:32.798Z,85.3
2019-01-21T01:15:42.459Z,84.55
2019-01-21T01:16:52.375Z,84.64
2019-01-21T01:18:01.795Z,84.55
2019-01-21T01:19:11.459Z,84.74
2019-01-21T01:20:21.414Z,84.92
2019-01-21T01:21:31.343Z,85.59
2019-01-21T01:22:41.002Z,84.27
2019-01-21T01:23:50.426Z,84.83
2019-01-21T01:25:00.347Z,84.92
2019-01-21T01:26:10.057Z,84.55
2019-01-21T01:27:19.473Z,84.83
2019-01-21T01:28:29.146Z,85.77
2019-01-21T01:29:38.306Z,85.68
2019-01-21T01:30:47.971Z,85.87
2019-01-21T01:31:57.394Z,85.49
2019-01-21T01:33:07.308Z,85.68
2019-01-21T01:34:17.223Z,84.64
2019-01-21T01:35:26.635Z,83.8
2019-01-21T01:36:35.578Z,83.8
2019-01-21T01:37:45.506Z,84.17
2019-01-21T01:38:55.172Z,84.36
2019-01-21T01:40:04.595Z,84.64
2019-01-21T01:41:14.016Z,84.17
2019-01-21T01:42:23.467Z,84.08
2019-01-21T01:43:33.413Z,84.55
2019-01-21T01:44:42.648Z,84.45
2019-01-21T01:45:52.601Z,83.8
2019-01-21T01:47:02.320Z,83.61
2019-01-21T01:48:12.261Z,83.51
2019-01-21T01:49:21.945Z,83.14
2019-01-21T01:50:31.902Z,81.91
2019-01-21T01:51:41.331Z,81.72
2019-01-21T01:52:50.778Z,81.15
2019-01-21T01:54:00.484Z,81.34
2019-01-21T01:55:09.683Z,81.81
2019-01-21T01:56:18.869Z,81.81
2019-01-21T01:57:28.564Z,81.81
2019-01-21T01:58:38.525Z,81.91
2019-01-21T01:59:48.204Z,81.62
2019-01-21T02:00:57.920Z,80.68
2019-01-21T02:02:07.627Z,81.24
2019-01-21T02:03:16.811Z,80.58
2019-01-21T02:04:26.506Z,80.58
2019-01-21T02:05:36.198Z,80.02
2019-01-21T02:06:46.220Z,79.74
2019-01-21T02:07:56.735Z,79.27
2019-01-21T02:09:07.309Z,78.98
2019-01-21T02:10:17.227Z,79.36
2019-01-21T02:11:27.525Z,78.89
2019-01-21T02:12:37.806Z,79.27
2019-01-21T02:13:47.743Z,79.64
2019-01-21T02:14:57.498Z,79.46
2019-01-21T02:16:06.450Z,78.98
2019-01-21T02:17:16.387Z,78.42
2019-01-21T02:18:26.082Z,78.79
2019-01-21T02:19:35.280Z,78.6
2019-01-21T02:20:44.967Z,78.98
2019-01-21T02:21:54.661Z,78.79
2019-01-21T02:23:04.607Z,78.7
2019-01-21T02:24:14.056Z,78.13
2019-01-21T02:25:23.748Z,78.32
2019-01-21T02:26:33.700Z,78
2019-01-21T02:27:43.393Z,78.47
2019-01-21T02:28:52.892Z,78.7
2019-01-21T02:30:02.377Z,78.56
2019-01-21T02:31:12.087Z,78
2019-01-21T02:32:21.818Z,77.94
2019-01-21T02:33:31.019Z,78.09
2019-01-21T02:34:40.461Z,78.56
2019-01-21T02:35:50.413Z,78.38
2019-01-21T02:37:00.108Z,78.79
2019-01-21T02:38:10.053Z,78.98
2019-01-21T02:39:19.509Z,79.46
2019-01-21T02:40:29.452Z,79.93
2019-01-21T02:41:39.164Z,80.02
2019-01-21T02:42:48.606Z,80.02
2019-01-21T02:43:58.302Z,80.11
2019-01-21T02:45:07.766Z,80.58
2019-01-21T02:46:17.478Z,79.64
2019-01-21T02:47:26.922Z,79.41
2019-01-21T02:48:36.898Z,79.64
2019-01-21T02:49:46.102Z,79.64
2019-01-21T02:50:56.101Z,79.6
2019-01-21T02:52:06.027Z,79.93
2019-01-21T02:53:16.392Z,80.02
2019-01-21T02:54:27.106Z,79.79
2019-01-21T02:55:37.584Z,79.88
2019-01-21T02:56:47.555Z,80.83
2019-01-21T02:57:56.993Z,80.45
2019-01-21T02:59:06.943Z,80.92
2019-01-21T03:00:16.631Z,81.11
2019-01-21T03:01:26.070Z,81.21
2019-01-21T03:02:35.767Z,80.83
2019-01-21T03:03:45.466Z,81.3
2019-01-21T03:04:55.419Z,81.49
2019-01-21T03:06:05.286Z,81.21
2019-01-21T03:07:14.728Z,80.92
2019-01-21T03:08:24.691Z,81.3
2019-01-21T03:09:34.411Z,81.3
2019-01-21T03:10:44.343Z,80.54
2019-01-21T03:11:54.292Z,80.83
2019-01-21T03:13:03.738Z,80.64
2019-01-21T03:14:13.458Z,80.73
2019-01-21T03:15:22.657Z,80.73
2019-01-21T03:16:32.106Z,80.73
2019-01-21T03:17:41.812Z,79.98
2019-01-21T03:18:51.250Z,79.98
2019-01-21T03:20:00.453Z,79.98
2019-01-21T03:21:10.397Z,80.07
2019-01-21T03:22:20.109Z,79.69
2019-01-21T03:23:29.304Z,80.45
2019-01-21T03:24:38.800Z,80.36
2019-01-21T03:25:48.257Z,80.54
2019-01-21T03:26:57.968Z,80.73
2019-01-21T03:28:07.684Z,80.83
2019-01-21T03:29:17.392Z,81.49
2019-01-21T03:30:26.878Z,81.4
2019-01-21T03:31:36.874Z,81.49
2019-01-21T03:32:46.974Z,81.4
2019-01-21T03:33:56.979Z,81.58
2019-01-21T03:35:07.284Z,80.64
2019-01-21T03:36:17.814Z,80.92
2019-01-21T03:37:28.261Z,81.3
2019-01-21T03:38:38.761Z,80.45
2019-01-21T03:39:49.177Z,80.26
2019-01-21T03:40:59.060Z,80.26
2019-01-21T03:42:08.754Z,80.54
2019-01-21T03:43:18.450Z,80.83
2019-01-21T03:44:28.399Z,81.4
2019-01-21T03:45:38.098Z,81.11
2019-01-21T03:46:48.057Z,81.68
2019-01-21T03:47:57.809Z,82.06
2019-01-21T03:49:07.778Z,81.96
2019-01-21T03:50:17.757Z,81.4
2019-01-21T03:51:27.213Z,82.06
2019-01-21T03:52:36.911Z,81.4
2019-01-21T03:53:46.116Z,81.96
2019-01-21T03:54:55.822Z,82.06
2019-01-21T03:56:05.027Z,82.06
2019-01-21T03:57:14.730Z,82.15
2019-01-21T03:58:24.427Z,82.62
2019-01-21T03:59:34.377Z,82.71
2019-01-21T04:00:44.332Z,82.9
2019-01-21T04:01:53.775Z,82.81
2019-01-21T04:03:03.721Z,82.62
2019-01-21T04:04:13.419Z,83.09
2019-01-21T04:05:23.133Z,81.87
2019-01-21T04:06:32.830Z,83.28
2019-01-21T04:07:42.277Z,83.09
2019-01-21T04:08:51.716Z,83.47
2019-01-21T04:10:01.677Z,82.62
2019-01-21T04:11:11.154Z,83.37
2019-01-21T04:12:21.100Z,84.22
2019-01-21T04:13:31.055Z,83.75
2019-01-21T04:14:40.509Z,83.28
2019-01-21T04:15:50.450Z,83.37
2019-01-21T04:17:00.393Z,83.65
2019-01-21T04:18:10.345Z,83.75
2019-01-21T04:19:27.534Z,83.84
2019-01-21T04:20:37.868Z,84.03
2019-01-21T04:21:48.243Z,84.22
2019-01-21T04:22:57.956Z,84.51
2019-01-21T04:24:07.912Z,84.6
2019-01-21T04:25:17.859Z,84.88
2019-01-21T04:26:27.827Z,84.32
2019-01-21T04:27:37.287Z,84.6
2019-01-21T04:28:46.986Z,84.41
2019-01-21T04:29:56.940Z,84.32
2019-01-21T04:31:06.907Z,84.51
2019-01-21T04:32:16.596Z,84.51
2019-01-21T04:33:26.302Z,84.32
2019-01-21T04:34:36.286Z,83.94
2019-01-21T04:35:46.284Z,84.69
2019-01-21T04:36:56.000Z,84.98
2019-01-21T04:38:05.452Z,84.51
2019-01-21T04:39:15.408Z,84.32
2019-01-21T04:40:25.106Z,84.03
2019-01-21T04:41:34.818Z,84.79
2019-01-21T04:42:44.780Z,84.88
2019-01-21T04:43:54.489Z,84.79
2019-01-21T04:45:04.475Z,84.32
2019-01-21T04:46:14.180Z,84.98
2019-01-21T04:47:24.494Z,84.22
2019-01-21T04:48:35.638Z,84.98
2019-01-21T04:49:45.113Z,84.22
2019-01-21T04:50:54.814Z,84.22
2019-01-21T04:52:04.769Z,84.6
2019-01-21T04:53:14.718Z,84.41
2019-01-21T04:54:24.420Z,84.32
2019-01-21T04:55:33.628Z,84.69
2019-01-21T04:56:43.590Z,84.69
2019-01-21T04:57:53.623Z,84.51
2019-01-21T04:59:03.949Z,84.98
2019-01-21T05:00:14.461Z,84.69
2019-01-21T05:01:25.015Z,84.41
2019-01-21T05:02:35.461Z,84.88
2019-01-21T05:03:45.556Z,84.41
2019-01-21T05:04:57.364Z,84.6
2019-01-21T05:06:07.129Z,84.51
2019-01-21T05:07:16.817Z,84.32
2019-01-21T05:08:26.812Z,84.41
2019-01-21T05:09:36.773Z,84.41
2019-01-21T05:10:46.212Z,84.69
2019-01-21T05:11:55.960Z,84.51
2019-01-21T05:13:05.922Z,84.32
2019-01-21T05:14:15.627Z,84.51
2019-01-21T05:15:25.438Z,84.51
2019-01-21T05:16:35.126Z,84.69
2019-01-21T05:17:45.072Z,84.69
2019-01-21T05:18:54.531Z,84.79
2019-01-21T05:20:03.732Z,84.79
2019-01-21T05:21:14.699Z,84.32
2019-01-21T05:22:24.423Z,84.79
2019-01-21T05:23:33.635Z,84.51
2019-01-21T05:24:43.586Z,84.79
2019-01-21T05:25:53.038Z,84.98
2019-01-21T05:27:02.533Z,84.41
2019-01-21T05:28:12.477Z,84.41
2019-01-21T05:29:21.953Z,83.84
2019-01-21T05:30:32.157Z,83.75
2019-01-21T05:31:41.352Z,83.18
2019-01-21T05:32:51.294Z,83.37
2019-01-21T05:34:01.249Z,83
2019-01-21T05:35:10.943Z,83.09
2019-01-21T05:36:20.658Z,82.15
2019-01-21T05:37:30.769Z,82.71
2019-01-21T05:38:40.472Z,82.71
2019-01-21T05:39:50.400Z,82.81
2019-01-21T05:41:00.078Z,83.37
2019-01-21T05:42:09.752Z,83.75
2019-01-21T05:43:19.425Z,83.84
2019-01-21T05:44:29.343Z,83.75
2019-01-21T05:45:39.266Z,84.32
2019-01-21T05:46:48.686Z,84.41
2019-01-21T05:47:58.364Z,84.79
2019-01-21T05:49:08.295Z,83.56
2019-01-21T05:50:18.226Z,84.41
2019-01-21T05:51:27.652Z,84.03
2019-01-21T05:52:37.328Z,84.51
2019-01-21T05:53:47.251Z,84.03
2019-01-21T05:54:57.172Z,83.65
2019-01-21T05:56:06.920Z,83.94
2019-01-21T05:57:16.590Z,84.32
2019-01-21T05:58:26.259Z,84.69
2019-01-21T05:59:35.677Z,84.22
2019-01-21T06:00:44.849Z,84.51
2019-01-21T06:01:54.801Z,83.94
2019-01-21T06:03:04.482Z,84.51
2019-01-21T06:04:14.397Z,84.51
2019-01-21T06:05:24.070Z,84.51
2019-01-21T06:06:33.733Z,84.51
2019-01-21T06:07:43.151Z,84.79
2019-01-21T06:08:52.337Z,84.98
2019-01-21T06:10:02.251Z,84.51
2019-01-21T06:11:11.680Z,85.54
2019-01-21T06:12:21.618Z,85.45
2019-01-21T06:13:31.030Z,84.6
2019-01-21T06:14:40.947Z,84.88
2019-01-21T06:15:50.111Z,84.6
2019-01-21T06:17:00.051Z,84.6
2019-01-21T06:18:09.219Z,85.17
2019-01-21T06:19:19.141Z,85.64
2019-01-21T06:20:29.064Z,85.26
2019-01-21T06:21:38.746Z,85.54
2019-01-21T06:22:48.445Z,85.36
2019-01-21T06:23:58.131Z,85.17
2019-01-21T06:25:07.810Z,85.17
2019-01-21T06:26:17.238Z,85.73
2019-01-21T06:27:26.909Z,85.26
2019-01-21T06:28:36.589Z,85.73
2019-01-21T06:29:46.251Z,84.79
2019-01-21T06:30:55.914Z,85.36
2019-01-21T06:32:05.847Z,85.54
2019-01-21T06:33:15.511Z,85.36
2019-01-21T06:34:25.488Z,85.36
2019-01-21T06:35:35.206Z,85.26
2019-01-21T06:36:44.633Z,85.45
2019-01-21T06:37:54.301Z,85.45
2019-01-21T06:39:03.472Z,86.21
2019-01-21T06:40:13.395Z,86.11
2019-01-21T06:41:22.817Z,85.45
2019-01-21T06:42:32.740Z,85.83
2019-01-21T06:43:42.658Z,85.26
2019-01-21T06:44:52.577Z,84.79
2019-01-21T06:46:02.491Z,84.79
2019-01-21T06:47:11.415Z,85.45
2019-01-21T06:48:21.338Z,85.36
2019-01-21T06:49:31.248Z,85.45
2019-01-21T06:50:40.664Z,85.92
2019-01-21T06:51:50.085Z,86.02
2019-01-21T06:52:59.753Z,86.21
2019-01-21T06:54:09.172Z,86.4
2019-01-21T06:55:19.086Z,86.21
2019-01-21T06:56:29.553Z,86.02
2019-01-21T06:57:39.358Z,86.77
2019-01-21T06:58:48.776Z,86.02
2019-01-21T06:59:58.442Z,86.77
2019-01-21T07:01:08.097Z,86.87
2019-01-21T07:02:17.763Z,86.58
2019-01-21T07:03:27.175Z,87.34
2019-01-21T07:04:37.110Z,86.96
2019-01-21T07:05:47.036Z,86.87
2019-01-21T07:06:56.703Z,86.87
2019-01-21T07:08:06.371Z,87.1
2019-01-21T07:09:16.032Z,86.58
2019-01-21T07:10:25.704Z,86.63
2019-01-21T07:11:35.117Z,86.54
2019-01-21T07:12:44.791Z,86.96
2019-01-21T07:13:56.055Z,87.52
2019-01-21T07:15:05.721Z,87.52
2019-01-21T07:16:15.631Z,86.96
2019-01-21T07:17:25.294Z,87.15
2019-01-21T07:18:34.714Z,86.77
2019-01-21T07:19:46.244Z,86.96
2019-01-21T07:20:56.014Z,86.21
2019-01-21T07:22:05.676Z,86.77
2019-01-21T07:23:15.340Z,86.02
2019-01-21T07:24:25.260Z,86.3
2019-01-21T07:25:34.926Z,86.58
2019-01-21T07:26:44.095Z,86.77
2019-01-21T07:27:53.512Z,86.58
2019-01-21T07:29:03.172Z,86.87
2019-01-21T07:30:13.085Z,85.92
2019-01-21T07:31:22.510Z,86.96
2019-01-21T07:32:32.173Z,86.58
2019-01-21T07:33:41.583Z,86.11
2019-01-21T07:34:50.746Z,86.77
2019-01-21T07:36:00.420Z,86.87
2019-01-21T07:37:09.843Z,86.77
2019-01-21T07:38:19.263Z,86.58
2019-01-21T07:39:28.926Z,85.92
2019-01-21T07:40:41.243Z,86.02
2019-01-21T07:41:50.659Z,85.83
2019-01-21T07:43:00.353Z,86.21
2019-01-21T07:44:10.378Z,86.4
2019-01-21T07:45:20.053Z,86.11
2019-01-21T07:46:29.219Z,86.11
2019-01-21T07:47:38.385Z,85.83
2019-01-21T07:48:48.053Z,85.64
2019-01-21T07:49:57.221Z,85.64
2019-01-21T07:51:06.389Z,85.26
2019-01-21T07:52:16.308Z,85.64
2019-01-21T07:53:25.976Z,85.54
2019-01-21T07:54:35.891Z,85.26
2019-01-21T07:55:45.560Z,85.73
2019-01-21T07:56:55.227Z,85.54
2019-01-21T07:58:04.896Z,85.45
2019-01-21T07:59:14.557Z,84.88
2019-01-21T08:00:24.225Z,84.79
2019-01-21T08:01:33.897Z,84.79
2019-01-21T08:02:43.320Z,84.6
2019-01-21T08:03:53.233Z,84.69
2019-01-21T08:05:03.166Z,84.6
2019-01-21T08:06:12.840Z,84.6
2019-01-21T08:07:22.513Z,83.84
2019-01-21T08:08:31.680Z,83.18
2019-01-21T08:09:41.105Z,83.37
2019-01-21T08:10:50.783Z,83.75
2019-01-21T08:12:00.701Z,83.18
2019-01-21T08:13:10.625Z,83.09
2019-01-21T08:14:20.550Z,83.09
2019-01-21T08:15:30.217Z,83.28
2019-01-21T08:16:39.884Z,83.09
2019-01-21T08:17:49.555Z,83.47
2019-01-21T08:19:00.218Z,82.9
2019-01-21T08:20:09.884Z,82.81
2019-01-21T08:21:19.795Z,82.15
2019-01-21T08:22:29.706Z,82.62
2019-01-21T08:23:39.380Z,82.9
2019-01-21T08:24:49.311Z,82.43
2019-01-21T08:25:58.985Z,81.96
2019-01-21T08:27:08.905Z,81.11
2019-01-21T08:28:19.672Z,81.49
2019-01-21T08:29:29.586Z,81.3
2019-01-21T08:30:39.248Z,80.64
2019-01-21T08:31:48.912Z,80.45
2019-01-21T08:32:58.583Z,80.07
2019-01-21T08:34:08.251Z,79.79
2019-01-21T08:35:18.168Z,79.88
2019-01-21T08:36:27.839Z,79.88
2019-01-21T08:37:37.508Z,79.5
2019-01-21T08:38:47.213Z,79.5
2019-01-21T08:39:57.139Z,79.41
2019-01-21T08:41:06.557Z,78.94
2019-01-21T08:42:16.474Z,78.75
2019-01-21T08:43:26.137Z,78.38
2019-01-21T08:44:35.326Z,77.62
2019-01-21T08:45:45.000Z,77.15
2019-01-21T08:46:54.663Z,77.34
2019-01-21T08:48:04.580Z,76.4
2019-01-21T08:49:14.245Z,76.02
2019-01-21T08:50:23.418Z,75.36
2019-01-21T08:51:33.084Z,75.26
2019-01-21T08:52:42.832Z,74.79
2019-01-21T08:53:52.498Z,74.79
2019-01-21T08:55:02.420Z,74.79
2019-01-21T08:56:12.337Z,74.79
2019-01-21T08:57:22.010Z,74.83
2019-01-21T08:58:31.683Z,74.92
2019-01-21T08:59:41.603Z,75.4
2019-01-21T09:00:51.523Z,74.45
2019-01-21T09:02:01.194Z,75.4
2019-01-21T09:03:14.451Z,75.3
2019-01-21T09:04:24.566Z,74.64
2019-01-21T09:05:34.235Z,74.17
2019-01-21T09:06:43.905Z,73.41
2019-01-21T09:07:53.322Z,72.66
2019-01-21T09:09:03.246Z,72.85
2019-01-21T09:10:13.167Z,72.28
2019-01-21T09:11:22.841Z,73.03
2019-01-21T09:12:32.515Z,72.94
2019-01-21T09:13:43.086Z,72
2019-01-21T09:14:52.789Z,71.62
2019-01-21T09:16:02.745Z,71.81
2019-01-21T09:17:12.182Z,71.62
2019-01-21T09:18:22.100Z,71.62
2019-01-21T09:19:37.054Z,71.62
2019-01-21T09:20:46.684Z,71.15
2019-01-21T09:21:56.355Z,70.68
2019-01-21T09:23:05.525Z,70.2
2019-01-21T09:24:15.716Z,69.73
2019-01-21T09:25:25.770Z,69.45
2019-01-21T09:26:35.187Z,69.54
2019-01-21T09:27:45.107Z,69.07
2019-01-21T09:28:54.779Z,68.51
2019-01-21T09:30:04.448Z,68.88
2019-01-21T09:31:14.118Z,68.51
2019-01-21T09:32:23.787Z,68.41
2019-01-21T09:33:33.460Z,68.23
2019-01-21T09:34:43.162Z,67.94
2019-01-21T09:35:52.830Z,67.28
2019-01-21T09:37:02.752Z,67.09
2019-01-21T09:38:12.435Z,66.81
2019-01-21T09:39:22.100Z,68.79
2019-01-21T09:40:31.276Z,68.6
2019-01-21T09:41:41.221Z,68.6
2019-01-21T09:42:50.899Z,69.07
2019-01-21T09:44:00.815Z,69.64
2019-01-21T09:45:10.730Z,69.35
2019-01-21T09:46:20.150Z,68.98
2019-01-21T09:47:30.079Z,69.07
2019-01-21T09:48:39.746Z,69.11
2019-01-21T09:49:49.665Z,68.44
2019-01-21T09:50:59.337Z,68.63
2019-01-21T09:52:09.260Z,68.07
2019-01-21T09:53:18.928Z,68.26
2019-01-21T09:54:28.100Z,67.69
2019-01-21T09:55:37.775Z,66.94
2019-01-21T09:56:47.559Z,67.13
2019-01-21T09:57:57.258Z,66.56
2019-01-21T09:59:06.929Z,67.13
2019-01-21T10:00:16.360Z,66.84
2019-01-21T10:01:26.285Z,67.41
2019-01-21T10:02:35.718Z,67.6
2019-01-21T10:03:44.916Z,68.92
2019-01-21T10:04:54.834Z,68.82
2019-01-21T10:06:04.509Z,68.73
2019-01-21T10:07:13.922Z,70.43
2019-01-21T10:08:23.615Z,71.37
2019-01-21T10:09:32.789Z,75.15
2019-01-21T10:10:42.712Z,74.49
2019-01-21T10:11:52.628Z,73.74
2019-01-21T10:13:02.552Z,74.21
2019-01-21T10:14:12.471Z,74.87
2019-01-21T10:15:22.390Z,75.53
2019-01-21T10:16:32.943Z,75.34
2019-01-21T10:17:42.113Z,75.15
2019-01-21T10:18:51.296Z,75.15
2019-01-21T10:20:00.711Z,75.05
2019-01-21T10:21:10.137Z,75.15
2019-01-21T10:22:20.057Z,75.24
2019-01-21T10:23:29.720Z,75.62
2019-01-21T10:24:39.136Z,76.76
2019-01-21T10:25:48.808Z,76.19
2019-01-21T10:26:58.774Z,76.76
2019-01-21T10:28:08.697Z,76.66
2019-01-21T10:29:18.114Z,76.95
2019-01-21T10:30:28.044Z,76.7
2019-01-21T10:31:37.720Z,76.51
2019-01-21T10:32:47.389Z,76.23
2019-01-21T10:33:57.309Z,75.76
2019-01-21T10:35:06.732Z,75.57
2019-01-21T10:36:16.404Z,76.51
2019-01-21T10:37:26.081Z,76.89
2019-01-21T10:38:35.500Z,77.74
2019-01-21T10:39:45.169Z,76.79
2019-01-21T10:40:54.837Z,76.7
2019-01-21T10:42:04.263Z,77.36
2019-01-21T10:43:13.437Z,76.89
2019-01-21T10:44:23.914Z,77.45
2019-01-21T10:45:32.831Z,78.4
2019-01-21T10:46:42.509Z,78.5
2019-01-21T10:47:52.170Z,79.06
2019-01-21T10:49:02.093Z,79.44
2019-01-21T10:50:11.765Z,79.82
2019-01-21T10:51:21.434Z,78.78
2019-01-21T10:52:31.349Z,79.35
2019-01-21T10:53:40.769Z,79.16
2019-01-21T10:54:50.690Z,78.87
2019-01-21T10:56:00.613Z,79.63
2019-01-21T10:57:10.542Z,80.1
2019-01-21T10:58:20.221Z,80.29
2019-01-21T10:59:29.634Z,79.63
2019-01-21T11:00:39.556Z,79.63
2019-01-21T11:01:49.229Z,80.57
2019-01-21T11:02:59.157Z,81.23
2019-01-21T11:04:10.267Z,81.99
2019-01-21T11:05:19.180Z,81.9
2019-01-21T11:06:29.113Z,81.52
2019-01-21T11:07:39.041Z,81.33
2019-01-21T11:08:48.963Z,83.97
2019-01-21T11:09:58.627Z,83.03
2019-01-21T11:11:08.551Z,83.36
2019-01-21T11:12:18.474Z,85.15
2019-01-21T11:13:28.396Z,85.15
2019-01-21T11:14:37.569Z,84.01
2019-01-21T11:15:47.449Z,83.73
2019-01-21T11:16:57.112Z,84.3
2019-01-21T11:18:06.531Z,86.1
2019-01-21T11:19:16.451Z,86
2019-01-21T11:20:29.754Z,86.66
2019-01-21T11:21:39.435Z,86.66
2019-01-21T11:22:48.858Z,86.66
2019-01-21T11:23:58.527Z,87.23
2019-01-21T11:25:08.208Z,87.51
2019-01-21T11:26:17.875Z,87.98
2019-01-21T11:27:27.553Z,87.98
2019-01-21T11:28:37.475Z,87.7
2019-01-21T11:29:47.765Z,88.08
2019-01-21T11:30:57.188Z,88.65
2019-01-21T11:32:06.868Z,87.79
2019-01-21T11:33:16.543Z,88.84
2019-01-21T11:34:25.738Z,89.22
2019-01-21T11:35:35.651Z,89.4
2019-01-21T11:36:44.827Z,88.74
2019-01-21T11:37:54.252Z,88.65
2019-01-21T11:39:03.686Z,89.12
2019-01-21T11:40:13.608Z,89.4
2019-01-21T11:41:23.279Z,90.82
2019-01-21T11:42:32.947Z,90.54
2019-01-21T11:43:42.615Z,90.44
2019-01-21T11:44:52.291Z,90.73
2019-01-21T11:46:02.216Z,91.01
2019-01-21T11:47:12.147Z,90.63
2019-01-21T11:48:22.076Z,90.73
2019-01-21T11:49:31.747Z,90.73
2019-01-21T11:50:41.670Z,90.73
2019-01-21T11:51:51.087Z,90.82
2019-01-21T11:53:01.026Z,90.91
2019-01-21T11:54:10.239Z,90.82
2019-01-21T11:55:19.654Z,91.48
2019-01-21T11:56:29.327Z,91.58
2019-01-21T11:57:38.998Z,91.96
2019-01-21T11:58:48.674Z,92.05
2019-01-21T11:59:58.607Z,92.05
2019-01-21T12:01:08.041Z,92.33
2019-01-21T12:02:17.712Z,92.99
2019-01-21T12:03:27.135Z,91.58
2019-01-21T12:04:37.059Z,92.14
2019-01-21T12:05:46.734Z,92.8
2019-01-21T12:06:56.419Z,92.8
2019-01-21T12:08:06.094Z,93.94
2019-01-21T12:09:16.017Z,92.14
2019-01-21T12:10:25.696Z,93.28
2019-01-21T12:11:35.624Z,93.8
2019-01-21T12:12:45.294Z,93.42
2019-01-21T12:13:54.970Z,92.76
2019-01-21T12:15:04.406Z,93.8
2019-01-21T12:16:13.823Z,92.94
2019-01-21T12:17:23.753Z,93.32
2019-01-21T12:18:32.929Z,94.65
2019-01-21T12:19:42.854Z,95.21
2019-01-21T12:20:52.277Z,95.03
2019-01-21T12:22:02.210Z,94.27
2019-01-21T12:23:11.887Z,94.37
2019-01-21T12:24:21.809Z,95.4
2019-01-21T12:25:31.746Z,94.65
2019-01-21T12:26:41.419Z,95.69
2019-01-21T12:27:50.841Z,94.84
2019-01-21T12:29:00.265Z,95.97
2019-01-21T12:30:09.935Z,95.69
2019-01-21T12:31:19.865Z,95.5
2019-01-21T12:32:29.797Z,95.21
2019-01-21T12:33:39.218Z,95.31
2019-01-21T12:34:48.635Z,95.78
2019-01-21T12:35:58.562Z,95.4
2019-01-21T12:37:08.487Z,95.78
2019-01-21T12:38:18.446Z,95.78
2019-01-21T12:39:27.862Z,95.78
2019-01-21T12:40:37.280Z,95.97
2019-01-21T12:41:46.956Z,95.88
2019-01-21T12:42:56.126Z,95.69
2019-01-21T12:44:05.817Z,96.26
2019-01-21T12:45:15.751Z,96.31
2019-01-21T12:46:25.719Z,96.21
2019-01-21T12:47:35.388Z,96.12
2019-01-21T12:48:45.306Z,96.5
2019-01-21T12:49:54.730Z,95.93
2019-01-21T12:51:04.660Z,96.4
2019-01-21T12:52:14.084Z,95.83
2019-01-21T12:53:24.028Z,96.59
2019-01-21T12:54:33.446Z,96.4
2019-01-21T12:55:43.139Z,96.59
2019-01-21T12:56:53.060Z,96.5
2019-01-21T12:58:02.807Z,96.4
2019-01-21T12:59:18.467Z,96.5
2019-01-21T13:00:28.144Z,96.31
2019-01-21T13:01:37.564Z,96.31
2019-01-21T13:02:46.998Z,95.55
2019-01-21T13:03:56.425Z,97.34
2019-01-21T13:05:05.848Z,96.35
2019-01-21T13:06:15.783Z,96.35
2019-01-21T13:07:25.210Z,96.26
2019-01-21T13:08:34.891Z,96.83
2019-01-21T13:09:44.576Z,95.97
2019-01-21T13:10:54.521Z,96.35
2019-01-21T13:12:04.520Z,96.64
2019-01-21T13:13:13.947Z,96.54
2019-01-21T13:14:23.369Z,96.35
2019-01-21T13:15:32.793Z,96.54
2019-01-21T13:16:42.215Z,97.39
2019-01-21T13:17:51.641Z,97.02
2019-01-21T13:19:01.062Z,97.02
2019-01-21T13:20:10.731Z,97.2
2019-01-21T13:21:20.153Z,97.2
2019-01-21T13:22:29.843Z,97.68
2019-01-21T13:23:39.289Z,97.87
2019-01-21T13:24:48.470Z,97.3
2019-01-21T13:25:58.376Z,97.39
2019-01-21T13:27:08.233Z,96.97
2019-01-21T13:28:18.165Z,97.11
2019-01-21T13:29:27.612Z,97.82
2019-01-21T13:30:37.294Z,97.63
2019-01-21T13:31:46.974Z,97.68
2019-01-21T13:32:56.908Z,98.2
2019-01-21T13:34:06.838Z,97.91
2019-01-21T13:35:16.262Z,98.15
2019-01-21T13:36:25.690Z,98.29
2019-01-21T13:37:35.616Z,98.29
2019-01-21T13:38:45.544Z,97.91
2019-01-21T13:39:55.229Z,98.2
2019-01-21T13:41:04.949Z,98.1
2019-01-21T13:42:14.885Z,98.39
2019-01-21T13:43:24.327Z,98.01
2019-01-21T13:44:33.754Z,97.91
2019-01-21T13:45:42.927Z,97.34
2019-01-21T13:46:52.599Z,97.91
2019-01-21T13:48:02.270Z,98.01
2019-01-21T13:49:11.949Z,98.29
2019-01-21T13:50:21.628Z,97.91
2019-01-21T13:51:31.302Z,99.05
2019-01-21T13:52:40.977Z,98.25
2019-01-21T13:53:50.903Z,98.72
2019-01-21T13:55:00.589Z,98.39
2019-01-21T13:56:11.530Z,98.29
2019-01-21T13:57:21.211Z,98.48
2019-01-21T13:58:30.881Z,98.1
2019-01-21T13:59:40.308Z,98.48
2019-01-21T14:00:49.987Z,99.15
2019-01-21T14:02:00.555Z,98.39
2019-01-21T14:03:09.984Z,99.05
2019-01-21T14:04:19.412Z,99.05
2019-01-21T14:05:33.533Z,98.39
2019-01-21T14:06:42.701Z,99.15
2019-01-21T14:07:52.632Z,99.15
2019-01-21T14:09:02.592Z,99.24
2019-01-21T14:10:12.272Z,98.39
2019-01-21T14:11:21.947Z,98.67
2019-01-21T14:12:31.620Z,98.39
2019-01-21T14:13:41.043Z,98.96
2019-01-21T14:14:50.473Z,98.96
2019-01-21T14:16:00.148Z,98.29
2019-01-21T14:17:09.824Z,99.05
2019-01-21T14:18:19.241Z,98.96
2019-01-21T14:19:28.915Z,98.39
2019-01-21T14:20:43.562Z,97.91
2019-01-21T14:21:53.183Z,99.24
2019-01-21T14:23:02.864Z,98.01
2019-01-21T14:24:12.293Z,99.05
2019-01-21T14:25:21.963Z,98.29
2019-01-21T14:26:31.632Z,98.29
2019-01-21T14:27:41.302Z,98.01
2019-01-21T14:28:50.725Z,98.29
2019-01-21T14:30:00.677Z,98.67
2019-01-21T14:31:10.352Z,98.1
2019-01-21T14:32:19.529Z,97.82
2019-01-21T14:33:29.453Z,98.29
2019-01-21T14:34:38.881Z,98.1
2019-01-21T14:35:48.812Z,98.1
2019-01-21T14:36:58.000Z,98.01
2019-01-21T14:38:07.426Z,98.29
2019-01-21T14:39:17.345Z,98.2
2019-01-21T14:40:27.021Z,97.91
2019-01-21T14:41:36.700Z,97.72
2019-01-21T14:42:46.622Z,98.1
2019-01-21T14:43:55.802Z,97.91
2019-01-21T14:45:05.475Z,97.82
2019-01-21T14:46:15.162Z,97.72
2019-01-21T14:47:24.933Z,98.1
2019-01-21T14:48:34.675Z,98.01
2019-01-21T14:49:44.469Z,98.2
2019-01-21T14:50:53.897Z,98.1
2019-01-21T14:52:03.857Z,97.82
2019-01-21T14:53:13.551Z,98.01
2019-01-21T14:54:23.544Z,97.63
2019-01-21T14:55:33.073Z,97.53
2019-01-21T14:56:42.804Z,98.1
2019-01-21T14:57:52.816Z,97.82
2019-01-21T14:59:02.431Z,97.82
2019-01-21T15:00:12.240Z,98.1
2019-01-21T15:01:22.312Z,97.82
2019-01-21T15:02:32.096Z,98.29